Time;durP1;ratioP1;P1;durP2;ratioP2;P2;SDS_P1;SDS_P2;PMS_P1;PMS_P2;Temp;Humidity;BMP_temperature;BMP_pressure;BME280_temperature;BME280_humidity;BME280_pressure;Samples;Min_cycle;Max_cycle;Signal;HPM_P1;HPM_P2
2022/07/06 00:01:16;;;;;;;7.60;6.60;;;;;;;17.32;84.29;100466.73;2875622;83;21007;-65
2022/07/06 00:05:17;;;;;;;9.73;7.83;;;;;;;17.35;84.28;100457.52;2875945;83;21053;-64
2022/07/06 00:09:19;;;;;;;10.70;6.80;;;;;;;17.34;84.30;100461.20;2873314;83;21026;-64
2022/07/06 00:13:20;;;;;;;7.05;6.35;;;;;;;17.33;84.46;100464.91;2812899;83;21011;-65
2022/07/06 00:17:22;;;;;;;9.63;8.13;;;;;;;17.35;84.86;100472.30;2780194;84;21054;-64
2022/07/06 00:21:44;;;;;;;9.13;7.05;;;;;;;17.37;85.64;100465.73;2846825;83;21007;-65
2022/07/06 00:25:46;;;;;;;7.72;7.03;;;;;;;17.43;85.84;100472.81;2768565;86;21212;-64
2022/07/06 00:29:47;;;;;;;9.05;6.78;;;;;;;17.46;86.46;100468.45;2876941;83;21036;-65
2022/07/06 00:33:51;;;;;;;8.35;7.35;;;;;;;17.50;86.73;100454.50;2876772;83;21010;-66
2022/07/06 00:37:53;;;;;;;9.18;8.13;;;;;;;17.55;86.75;100461.56;2877050;83;21011;-65
2022/07/06 00:41:55;;;;;;;9.63;8.48;;;;;;;17.56;87.37;100461.89;2876733;83;20986;-66
2022/07/06 00:45:57;;;;;;;9.50;7.78;;;;;;;17.43;88.62;100465.58;2877181;83;21014;-65
2022/07/06 00:54:18;;;;;;;7.33;6.53;;;;;;;17.33;88.73;100468.42;2876698;83;21022;-64
2022/07/06 00:58:20;;;;;;;10.20;8.80;;;;;;;17.40;87.23;100460.53;2847249;81;21006;-65
2022/07/06 01:02:22;;;;;;;14.18;8.13;;;;;;;17.39;86.25;100463.74;2869261;81;21010;-64
2022/07/06 01:06:23;;;;;;;10.55;8.40;;;;;;;17.36;87.60;100459.19;2868153;83;20952;-64
2022/07/06 01:10:40;;;;;;;14.03;8.35;;;;;;;17.34;87.82;100462.03;2868279;83;21042;-65
2022/07/06 01:14:42;;;;;;;11.48;8.28;;;;;;;17.30;88.42;100458.52;2868065;83;21007;-65
2022/07/06 01:18:43;;;;;;;11.53;8.80;;;;;;;17.10;90.99;100466.88;2868273;82;21015;-65
2022/07/06 01:22:48;;;;;;;12.37;8.83;;;;;;;16.92;90.49;100471.84;2834495;83;21032;-65
2022/07/06 01:26:53;;;;;;;9.43;6.85;;;;;;;16.80;88.75;100469.09;2836358;83;21026;-66
2022/07/06 01:30:54;;;;;;;10.50;9.08;;;;;;;16.77;88.37;100466.73;2868458;83;20931;-65
2022/07/06 01:34:55;;;;;;;11.93;8.80;;;;;;;16.85;88.14;100465.41;2838175;83;20979;-65
2022/07/06 01:38:58;;;;;;;13.00;8.93;;;;;;;16.88;88.20;100467.77;2861614;81;21066;-66
2022/07/06 01:42:59;;;;;;;13.70;9.40;;;;;;;16.94;87.98;100465.80;2842827;83;21047;-65
2022/07/06 01:47:00;;;;;;;9.70;8.73;;;;;;;16.96;87.19;100461.09;2823183;83;20999;-67
2022/07/06 01:51:05;;;;;;;10.38;9.30;;;;;;;17.00;87.33;100462.99;2876812;83;21011;-64
2022/07/06 01:55:08;;;;;;;19.15;9.90;;;;;;;17.08;88.10;100464.34;2876226;83;21022;-66
2022/07/06 01:59:09;;;;;;;9.68;8.45;;;;;;;16.87;91.08;100459.89;2848213;83;21030;-65
2022/07/06 02:03:11;;;;;;;9.33;8.13;;;;;;;16.80;92.56;100468.61;2839522;83;21044;-64
2022/07/06 02:07:12;;;;;;;12.85;9.43;;;;;;;16.82;92.56;100477.34;2811942;84;21015;-65
2022/07/06 02:11:14;;;;;;;10.78;8.68;;;;;;;16.90;92.73;100489.97;2860997;83;20963;-64
2022/07/06 02:15:15;;;;;;;13.98;8.58;;;;;;;16.97;92.86;100492.82;2869344;83;21030;-64
2022/07/06 02:19:16;;;;;;;11.00;9.18;;;;;;;17.02;93.63;100497.26;2899689;81;20987;-64
2022/07/06 02:23:18;;;;;;;17.73;9.48;;;;;;;17.02;94.02;100499.09;2910500;81;21066;-65
2022/07/06 02:28:12;;;;;;;13.55;8.70;;;;;;;17.07;93.55;100483.31;2912191;81;21018;-66
2022/07/06 02:32:13;;;;;;;19.98;8.65;;;;;;;17.09;93.81;100482.64;2879876;81;21014;-67
2022/07/06 02:36:14;;;;;;;15.83;7.10;;;;;;;17.13;93.18;100517.61;2876768;83;21022;-66
2022/07/06 02:40:16;;;;;;;15.98;7.58;;;;;;;16.99;92.18;100513.68;2876582;83;20999;-66
2022/07/06 02:44:17;;;;;;;13.40;9.05;;;;;;;17.01;91.99;100514.87;2806783;84;20994;-66
2022/07/06 02:48:21;;;;;;;8.25;7.40;;;;;;;17.08;91.29;100521.27;2771587;84;20991;-66
2022/07/06 02:52:22;;;;;;;13.18;7.28;;;;;;;16.93;91.24;100543.86;2784164;84;21097;-67
2022/07/06 02:56:31;;;;;;;9.33;5.92;;;;;;;16.93;91.17;100545.20;2815807;84;21006;-66
2022/07/06 03:00:32;;;;;;;7.80;5.72;;;;;;;16.89;89.95;100547.88;2807353;83;21065;-66
2022/07/06 03:04:45;;;;;;;9.35;5.72;;;;;;;16.89;89.48;100545.19;2807691;83;20983;-66
2022/07/06 03:08:47;;;;;;;8.95;4.95;;;;;;;16.96;88.39;100556.48;2814008;84;21006;-66
2022/07/06 03:12:48;;;;;;;5.50;5.00;;;;;;;17.01;89.17;100568.62;2828891;83;20987;-66
2022/07/06 03:16:49;;;;;;;3.92;3.52;;;;;;;16.96;90.13;100567.72;2778189;84;21295;-67
2022/07/06 03:20:50;;;;;;;5.37;3.90;;;;;;;16.92;91.74;100576.63;2781021;82;21110;-61
2022/07/06 03:25:03;;;;;;;5.95;3.80;;;;;;;16.83;93.66;100564.13;2798319;84;21069;-62
2022/07/06 03:29:05;;;;;;;5.80;4.10;;;;;;;16.71;95.55;100583.72;2767807;84;21016;-60
2022/07/06 03:33:14;;;;;;;13.78;4.85;;;;;;;16.75;96.13;100589.11;2754751;84;21043;-59
2022/07/06 03:37:16;;;;;;;9.53;4.70;;;;;;;16.79;96.47;100593.15;2807155;84;21061;-62
2022/07/06 03:41:18;;;;;;;5.67;4.35;;;;;;;16.83;96.73;100596.37;2846901;82;21026;-60
2022/07/06 03:45:19;;;;;;;5.47;4.05;;;;;;;16.80;97.95;100609.64;2850484;83;21046;-61
2022/07/06 03:49:22;;;;;;;4.90;3.85;;;;;;;16.69;100.00;100625.48;2813947;84;20992;-60
2022/07/06 03:53:24;;;;;;;6.15;4.03;;;;;;;16.60;100.00;100604.97;2862515;81;21009;-60
2022/07/06 03:57:32;;;;;;;6.70;3.37;;;;;;;16.48;100.00;100615.12;2849697;83;21049;-60
2022/07/06 04:01:33;;;;;;;7.00;4.10;;;;;;;16.44;100.00;100614.24;2849321;81;21042;-63
2022/07/06 04:05:36;;;;;;;7.45;3.30;;;;;;;16.38;100.00;100608.99;2874145;81;21042;-60
2022/07/06 04:09:37;;;;;;;11.65;3.98;;;;;;;16.34;100.00;100607.14;2878937;81;20975;-62
2022/07/06 04:13:38;;;;;;;10.72;3.75;;;;;;;16.40;100.00;100605.16;2899815;81;20975;-63
2022/07/06 04:17:51;;;;;;;8.63;4.47;;;;;;;16.45;100.00;100589.94;2864589;83;20991;-61
2022/07/06 04:21:54;;;;;;;8.05;4.08;;;;;;;16.41;100.00;100597.97;2869809;83;20991;-61
2022/07/06 04:25:59;;;;;;;6.28;4.65;;;;;;;16.53;100.00;100607.95;2857016;81;20996;-60
2022/07/06 04:30:02;;;;;;;6.35;3.90;;;;;;;16.61;100.00;100603.97;2868792;81;20983;-60
2022/07/06 04:34:03;;;;;;;7.50;3.77;;;;;;;16.73;100.00;100599.17;2899294;81;21015;-61
2022/07/06 04:38:15;;;;;;;6.22;4.20;;;;;;;16.83;100.00;100589.66;2906821;81;20971;-60
2022/07/06 04:42:38;;;;;;;6.15;3.60;;;;;;;16.95;100.00;100587.05;2875800;83;21022;-61
2022/07/06 04:46:40;;;;;;;6.37;4.65;;;;;;;17.09;100.00;100581.59;2900792;81;21041;-62
2022/07/06 04:50:41;;;;;;;4.67;3.75;;;;;;;17.25;100.00;100561.98;2882360;82;20952;-64
2022/07/06 04:54:42;;;;;;;3.55;3.25;;;;;;;17.35;100.00;100555.13;2895806;81;20971;-62
2022/07/06 04:58:43;;;;;;;8.40;4.10;;;;;;;17.52;99.45;100526.44;2926084;81;20956;-61
2022/07/06 05:02:44;;;;;;;7.67;3.65;;;;;;;17.63;97.25;100512.32;2925194;81;21434;-62
2022/07/06 05:06:47;;;;;;;6.33;3.92;;;;;;;17.63;98.02;100517.21;2869894;83;21038;-62
2022/07/06 05:10:49;;;;;;;9.13;3.85;;;;;;;17.52;99.66;100511.66;2912688;81;20967;-62
2022/07/06 05:14:50;;;;;;;4.53;3.70;;;;;;;17.53;99.49;100516.51;2877417;83;20998;-62
2022/07/06 05:18:52;;;;;;;4.72;3.87;;;;;;;17.60;100.00;100522.07;2819691;84;20988;-61
2022/07/06 05:22:53;;;;;;;4.42;3.92;;;;;;;17.75;100.00;100535.70;2851819;83;20987;-63
2022/07/06 05:26:54;;;;;;;7.90;4.87;;;;;;;17.85;100.00;100550.67;2852384;82;20983;-63
2022/07/06 05:30:56;;;;;;;3.62;3.33;;;;;;;17.88;100.00;100577.75;2836483;83;20989;-62
2022/07/06 05:34:57;;;;;;;5.95;3.95;;;;;;;17.73;100.00;100580.27;2771056;86;21014;-63
2022/07/06 05:38:58;;;;;;;4.70;4.28;;;;;;;17.53;100.00;100583.25;2770824;86;21236;-63
2022/07/06 05:43:00;;;;;;;4.10;3.62;;;;;;;17.44;100.00;100590.13;2822332;83;21097;-62
2022/07/06 05:51:05;;;;;;;8.00;5.78;;;;;;;17.56;100.00;100584.75;2778493;84;21030;-62
2022/07/06 05:55:07;;;;;;;7.85;5.85;;;;;;;17.95;100.00;100585.48;2828055;83;21018;-61
2022/07/06 05:59:10;;;;;;;7.58;6.75;;;;;;;18.25;100.00;100587.71;2807469;83;21019;-60
2022/07/06 06:03:12;;;;;;;6.70;4.83;;;;;;;18.96;100.00;100585.23;2800706;84;21063;-61
2022/07/06 06:07:14;;;;;;;5.85;3.72;;;;;;;19.76;96.52;100578.44;2823802;83;21067;-61
2022/07/06 06:11:16;;;;;;;4.90;4.15;;;;;;;20.10;87.02;100583.96;2833721;83;20997;-61
2022/07/06 06:15:18;;;;;;;6.30;3.30;;;;;;;20.52;84.58;100576.83;2859718;82;20958;-62
2022/07/06 06:19:19;;;;;;;3.98;2.83;;;;;;;20.94;84.53;100579.44;2807425;85;20995;-63
2022/07/06 06:23:21;;;;;;;4.03;2.50;;;;;;;21.26;79.94;100580.06;2803572;83;21016;-63
2022/07/06 06:27:24;;;;;;;6.40;3.98;;;;;;;21.06;77.49;100583.03;2778790;83;21023;-62
2022/07/06 06:31:26;;;;;;;5.08;4.05;;;;;;;21.35;79.99;100586.70;2811191;82;21026;-62
2022/07/06 06:35:27;;;;;;;5.05;2.72;;;;;;;21.65;79.72;100586.66;2844417;83;21003;-63
2022/07/06 06:39:29;;;;;;;4.83;4.05;;;;;;;21.78;77.52;100584.61;2806628;84;21221;-62
2022/07/06 06:43:31;;;;;;;4.42;3.05;;;;;;;21.50;75.24;100582.09;2842879;83;20954;-60
2022/07/06 06:47:33;;;;;;;3.12;1.98;;;;;;;21.79;75.45;100585.75;2807819;85;20983;-61
2022/07/06 06:51:34;;;;;;;2.45;1.90;;;;;;;21.95;72.82;100586.53;2808086;83;21625;-60
2022/07/06 06:55:35;;;;;;;3.60;2.20;;;;;;;22.10;73.16;100591.88;2887944;82;21050;-61
2022/07/06 06:59:40;;;;;;;1.67;1.57;;;;;;;22.21;68.81;100588.64;2857221;83;29231;-60
2022/07/06 07:03:41;;;;;;;2.80;2.15;;;;;;;22.03;68.06;100570.17;2852881;83;20992;-61
2022/07/06 07:07:43;;;;;;;2.52;1.55;;;;;;;21.91;68.47;100579.33;2887708;81;20991;-63
2022/07/06 07:11:44;;;;;;;3.40;1.80;;;;;;;22.08;70.19;100576.33;2822101;83;21591;-61
2022/07/06 07:15:45;;;;;;;2.00;1.70;;;;;;;22.47;69.49;100579.60;2865002;83;21003;-60
2022/07/06 07:19:47;;;;;;;3.15;1.65;;;;;;;22.50;68.54;100581.91;2820305;83;21038;-60
2022/07/06 07:23:50;;;;;;;3.30;1.80;;;;;;;22.65;66.96;100585.36;2857652;83;21048;-61
2022/07/06 07:27:53;;;;;;;4.08;2.17;;;;;;;22.56;66.36;100596.02;2879350;82;21030;-60
2022/07/06 07:32:01;;;;;;;3.98;2.50;;;;;;;22.50;66.61;100597.67;2862673;82;21029;-59
2022/07/06 07:36:02;;;;;;;4.55;2.42;;;;;;;22.64;67.31;100608.59;2836964;83;21020;-61
2022/07/06 07:40:05;;;;;;;2.77;1.98;;;;;;;22.51;68.10;100594.43;2804502;85;20999;-60
2022/07/06 07:44:07;;;;;;;3.37;2.87;;;;;;;22.43;67.04;100605.40;2856696;83;21010;-62
2022/07/06 07:48:09;;;;;;;2.72;2.10;;;;;;;22.37;67.35;100603.77;2858085;82;21039;-60
2022/07/06 07:52:11;;;;;;;6.33;2.60;;;;;;;22.48;67.40;100607.84;2801517;85;21038;-61
2022/07/06 07:56:12;;;;;;;3.05;1.50;;;;;;;22.86;67.55;100612.59;2850612;82;21504;-60
2022/07/06 08:00:15;;;;;;;4.05;2.52;;;;;;;23.13;66.46;100609.50;2857457;83;20998;-62
2022/07/06 08:04:16;;;;;;;3.52;2.25;;;;;;;23.19;63.52;100614.65;2877753;82;20972;-62
2022/07/06 08:08:18;;;;;;;4.90;2.65;;;;;;;23.10;64.62;100601.27;2861292;82;21011;-62
2022/07/06 08:12:20;;;;;;;2.87;1.87;;;;;;;23.37;65.16;100606.83;2853782;83;21050;-60
2022/07/06 08:16:22;;;;;;;3.87;2.40;;;;;;;23.39;63.36;100612.06;2872525;83;20998;-60
2022/07/06 08:20:24;;;;;;;2.20;2.00;;;;;;;23.53;63.57;100612.41;2872756;83;20999;-59
2022/07/06 08:33:10;;;;;;;2.47;1.70;;;;;;;23.72;60.22;100626.78;2917609;80;21054;-92
2022/07/06 08:37:12;;;;;;;12.68;4.30;;;;;;;23.80;59.24;100615.72;2912447;80;21046;-91
2022/07/06 08:41:29;;;;;;;3.72;2.65;;;;;;;23.86;60.34;100609.98;2840574;82;21011;-92
2022/07/06 08:45:36;;;;;;;7.03;3.05;;;;;;;24.04;61.25;100612.98;2893921;82;22198;-92
2022/07/06 08:49:38;;;;;;;3.42;2.75;;;;;;;24.13;58.92;100608.69;2864557;82;21303;-92
2022/07/06 08:53:42;;;;;;;3.15;2.72;;;;;;;24.29;58.92;100610.17;2863769;80;21287;-92
2022/07/06 08:57:46;;;;;;;3.15;2.60;;;;;;;24.33;59.07;100607.34;2903019;80;21054;-93
2022/07/06 09:01:48;;;;;;;4.12;3.17;;;;;;;24.42;57.37;100603.89;2823612;83;21023;-92
2022/07/06 09:05:52;;;;;;;3.65;3.25;;;;;;;24.47;57.48;100602.73;2899524;80;20988;-91
2022/07/06 09:09:56;;;;;;;3.17;2.72;;;;;;;24.63;57.96;100589.21;2817940;84;20997;-92
2022/07/06 09:13:58;;;;;;;3.10;2.12;;;;;;;24.70;55.60;100600.08;2888442;80;21146;-91
2022/07/06 09:18:00;;;;;;;5.35;1.85;;;;;;;24.70;55.79;100597.36;2883212;82;21070;-91
2022/07/06 09:22:03;;;;;;;4.60;2.58;;;;;;;24.90;56.25;100590.55;2896731;80;21019;-92
2022/07/06 09:26:06;;;;;;;5.45;3.30;;;;;;;24.98;55.53;100590.85;2897702;80;21601;-92
2022/07/06 09:30:10;;;;;;;3.60;2.98;;;;;;;25.09;55.12;100586.94;2842410;82;21031;-92
2022/07/06 09:34:12;;;;;;;4.03;2.27;;;;;;;25.30;57.77;100586.84;2818896;83;22152;-91
2022/07/06 09:38:14;;;;;;;3.87;2.35;;;;;;;25.24;54.78;100583.94;2919391;80;21137;-92
2022/07/06 09:42:26;;;;;;;4.33;2.30;;;;;;;25.09;53.81;100584.72;2888938;82;21023;-92
2022/07/06 09:46:28;;;;;;;2.80;1.57;;;;;;;25.21;54.48;100573.48;2897542;80;21023;-92
2022/07/06 09:50:33;;;;;;;3.27;1.67;;;;;;;25.40;51.34;100576.33;2894781;82;21090;-91
2022/07/06 09:54:54;;;;;;;3.00;2.50;;;;;;;24.93;51.23;100575.98;2893692;82;21027;-92
2022/07/06 09:58:56;;;;;;;4.15;2.50;;;;;;;24.88;52.98;100567.63;2823186;84;21087;-91
2022/07/06 10:02:58;;;;;;;2.72;2.35;;;;;;;24.80;55.72;100563.26;2901407;80;21019;-92
2022/07/06 10:07:00;;;;;;;1.82;1.52;;;;;;;25.08;52.07;100577.10;2824310;84;21016;-92
2022/07/06 10:11:02;;;;;;;3.02;1.82;;;;;;;25.09;53.14;100582.00;2893870;81;21157;-91
2022/07/06 10:15:06;;;;;;;1.98;1.30;;;;;;;24.83;54.54;100589.21;2902504;80;21042;-92
2022/07/06 10:19:09;;;;;;;1.90;1.65;;;;;;;24.58;55.75;100583.07;2824092;84;21022;-92
2022/07/06 10:23:11;;;;;;;6.58;1.22;;;;;;;24.65;54.72;100585.23;2893859;80;21094;-91
2022/07/06 10:27:15;;;;;;;3.22;1.60;;;;;;;24.65;52.01;100574.36;2902316;80;21019;-91
2022/07/06 10:31:18;;;;;;;2.65;1.30;;;;;;;24.94;53.45;100572.20;2818302;84;21115;-91
2022/07/06 10:35:32;;;;;;;5.80;1.92;;;;;;;24.54;52.44;100583.16;2859849;81;20984;-92
2022/07/06 10:43:57;;;;;;;2.12;0.93;;;;;;;24.32;54.22;100588.83;2845382;83;21038;-91
2022/07/06 10:48:18;;;;;;;3.83;0.90;;;;;;;24.16;53.21;100589.24;2838969;83;21016;-92
2022/07/06 10:52:20;;;;;;;2.77;0.98;;;;;;;24.13;54.43;100587.80;2837564;83;21043;-92
2022/07/06 10:56:49;;;;;;;3.05;1.40;;;;;;;24.43;53.18;100579.20;2841301;82;21495;-92
2022/07/06 11:00:55;;;;;;;0.62;0.50;;;;;;;24.75;52.21;100577.16;2800875;83;20984;-91
2022/07/06 11:04:57;;;;;;;2.98;0.95;;;;;;;24.75;48.62;100576.67;2842958;83;21003;-91
2022/07/06 11:09:02;;;;;;;2.12;1.12;;;;;;;24.84;48.94;100570.48;2844963;83;21543;-92
2022/07/06 11:13:03;;;;;;;1.75;0.82;;;;;;;25.21;49.16;100563.95;2800555;83;21027;-91
2022/07/06 11:17:11;;;;;;;3.85;0.82;;;;;;;25.10;48.15;100576.36;2838041;82;21067;-92
2022/07/06 11:21:24;;;;;;;1.60;0.75;;;;;;;24.94;48.49;100558.61;2846629;83;21049;-91
2022/07/06 11:25:26;;;;;;;2.37;1.10;;;;;;;25.16;50.32;100580.11;2829181;83;21008;-92
2022/07/06 11:29:29;;;;;;;9.08;1.60;;;;;;;25.16;49.03;100580.62;2839366;83;21042;-91
2022/07/06 11:33:32;;;;;;;2.35;0.93;;;;;;;24.89;49.50;100577.47;2831227;82;21078;-91
2022/07/06 11:37:34;;;;;;;1.22;0.78;;;;;;;24.75;49.76;100575.79;2858317;81;21000;-92
2022/07/06 11:41:36;;;;;;;1.17;1.00;;;;;;;25.05;49.25;100564.44;2856577;82;21015;-92
2022/07/06 11:45:38;;;;;;;3.17;0.70;;;;;;;25.31;49.38;100573.53;2856359;83;21051;-90
2022/07/06 11:49:41;;;;;;;4.40;1.12;;;;;;;24.98;47.51;100563.64;2850467;80;21035;-92
2022/07/06 11:53:56;;;;;;;1.55;0.72;;;;;;;25.13;48.97;100562.00;2770242;84;21007;-91
2022/07/06 11:58:00;;;;;;;1.45;0.60;;;;;;;25.63;48.23;100550.45;2804306;84;21055;-92
2022/07/06 12:02:05;;;;;;;3.52;1.20;;;;;;;25.92;46.90;100553.08;2849314;83;21134;-92
2022/07/06 12:06:39;;;;;;;3.47;0.90;;;;;;;25.95;45.30;100542.27;2857900;83;21598;-92
2022/07/06 12:10:40;;;;;;;1.57;1.35;;;;;;;25.75;44.04;100555.52;2858191;82;21019;-92
2022/07/06 12:14:42;;;;;;;5.87;2.10;;;;;;;25.32;45.78;100554.27;2854279;83;21495;-92
2022/07/06 12:18:47;;;;;;;4.22;1.17;;;;;;;25.49;46.18;100549.71;2856957;82;21035;-91
2022/07/06 12:22:48;;;;;;;6.45;1.10;;;;;;;25.42;47.54;100560.61;2855912;83;20979;-91
2022/07/06 12:26:52;;;;;;;6.47;1.22;;;;;;;25.39;49.44;100558.33;2858543;83;21047;-91
2022/07/06 12:30:53;;;;;;;3.05;1.35;;;;;;;25.51;46.59;100559.31;2860177;82;21567;-92
2022/07/06 12:35:07;;;;;;;2.58;1.27;;;;;;;25.60;45.69;100552.27;2851633;82;21024;-91
2022/07/06 12:39:13;;;;;;;2.30;1.00;;;;;;;25.58;45.19;100558.45;2844309;83;21079;-91
2022/07/06 12:43:40;;;;;;;3.30;1.22;;;;;;;25.56;45.59;100546.95;2844580;83;21031;-91
2022/07/06 12:47:45;;;;;;;1.67;1.22;;;;;;;25.68;44.90;100560.16;2791393;84;21180;-92
2022/07/06 12:52:04;;;;;;;6.50;1.45;;;;;;;25.45;44.58;100555.23;2782270;84;21935;-92
2022/07/06 12:56:14;;;;;;;4.45;2.00;;;;;;;25.64;45.19;100552.13;2796020;84;21430;-92
2022/07/06 13:00:17;;;;;;;3.45;1.50;;;;;;;25.70;43.72;100568.94;2803511;84;21555;-91
2022/07/06 13:04:31;;;;;;;2.17;1.42;;;;;;;26.00;44.80;100564.23;2825210;84;21071;-91
2022/07/06 13:08:33;;;;;;;3.35;2.15;;;;;;;26.15;42.80;100569.89;2794018;84;21535;-91
2022/07/06 13:12:53;;;;;;;3.25;1.82;;;;;;;26.05;43.63;100557.58;2792239;84;21039;-91
2022/07/06 13:16:54;;;;;;;7.55;2.52;;;;;;;25.93;44.50;100549.30;2799192;83;20988;-91
2022/07/06 13:20:56;;;;;;;4.10;1.72;;;;;;;25.88;44.43;100542.32;2825494;83;21008;-92
2022/07/06 13:24:57;;;;;;;2.60;1.55;;;;;;;25.86;45.00;100564.02;2831721;82;21090;-93
2022/07/06 13:29:03;;;;;;;5.00;1.87;;;;;;;25.89;42.54;100569.02;2841392;82;21062;-93
2022/07/06 13:33:04;;;;;;;1.17;1.07;;;;;;;25.98;43.09;100570.44;2843530;83;21003;-93
2022/07/06 13:37:06;;;;;;;5.40;1.67;;;;;;;25.91;41.62;100562.82;2845854;82;21059;-93
2022/07/06 13:41:11;;;;;;;4.65;1.82;;;;;;;26.03;43.17;100561.06;2844189;83;21038;-94
2022/07/06 13:45:12;;;;;;;1.60;1.17;;;;;;;25.65;43.31;100563.33;2828940;83;21523;-92
2022/07/06 13:49:14;;;;;;;1.90;1.15;;;;;;;25.29;44.54;100571.55;2795464;82;21015;-93
2022/07/06 13:53:26;;;;;;;4.33;1.15;;;;;;;25.45;44.28;100568.84;2835356;83;21054;-92
2022/07/06 13:57:28;;;;;;;3.27;1.17;;;;;;;25.66;43.29;100567.20;2824994;82;21076;-93
2022/07/06 14:01:29;;;;;;;6.47;1.55;;;;;;;25.79;43.71;100558.10;2835197;81;22198;-93
2022/07/06 14:05:33;;;;;;;3.80;0.88;;;;;;;25.84;43.35;100570.22;2841358;83;21050;-92
2022/07/06 14:09:35;;;;;;;4.40;0.95;;;;;;;25.56;43.75;100567.38;2845837;83;21011;-93
2022/07/06 14:13:37;;;;;;;3.83;1.12;;;;;;;25.24;43.92;100540.38;2745657;83;20980;-95
2022/07/06 14:17:39;;;;;;;1.45;0.70;;;;;;;25.05;43.54;100546.75;2847466;81;21047;-93
2022/07/06 14:21:40;;;;;;;1.60;0.90;;;;;;;25.07;44.97;100560.98;2847092;82;21304;-92
2022/07/06 14:25:43;;;;;;;0.68;0.47;;;;;;;25.13;44.48;100553.30;2847150;82;21626;-93
2022/07/06 14:29:45;;;;;;;7.08;1.42;;;;;;;25.36;45.17;100552.78;2828752;82;21047;-92
2022/07/06 14:33:56;;;;;;;3.77;1.15;;;;;;;25.53;44.66;100556.38;2807798;83;20995;-93
2022/07/06 14:37:58;;;;;;;0.70;0.60;;;;;;;25.57;42.61;100547.26;2918597;80;21069;-91
2022/07/06 14:41:59;;;;;;;3.62;1.35;;;;;;;25.38;41.67;100551.21;2832713;83;20980;-92
2022/07/06 14:46:01;;;;;;;1.80;0.70;;;;;;;25.57;42.78;100549.44;2901590;81;21045;-92
2022/07/06 14:50:04;;;;;;;3.77;1.82;;;;;;;25.83;43.81;100553.02;2848317;81;21569;-91
2022/07/06 14:54:05;;;;;;;2.12;0.82;;;;;;;26.09;43.93;100541.63;2865288;80;21038;-92
2022/07/06 14:58:07;;;;;;;5.10;1.05;;;;;;;25.74;42.80;100537.47;2813276;83;21035;-93
2022/07/06 15:02:09;;;;;;;2.62;1.15;;;;;;;25.56;43.51;100546.41;2903356;80;21121;-92
2022/07/06 15:06:10;;;;;;;2.87;1.17;;;;;;;25.40;44.37;100554.55;2896054;80;21063;-93
2022/07/06 15:10:12;;;;;;;0.88;0.50;;;;;;;25.41;43.47;100554.00;2835737;83;21063;-93
2022/07/06 15:14:15;;;;;;;2.17;0.45;;;;;;;25.40;43.50;100557.27;2932296;80;21038;-93
2022/07/06 15:18:19;;;;;;;3.92;0.95;;;;;;;25.29;43.29;100557.95;2891713;80;21031;-91
2022/07/06 15:22:21;;;;;;;1.02;0.90;;;;;;;25.11;42.63;100554.05;2850315;83;21597;-93
2022/07/06 15:26:26;;;;;;;4.40;1.02;;;;;;;25.11;43.19;100555.41;2905474;80;21043;-96
2022/07/06 15:30:28;;;;;;;1.25;0.65;;;;;;;24.93;43.82;100546.05;2911900;80;21003;-91
2022/07/06 15:34:30;;;;;;;1.85;1.05;;;;;;;24.90;43.48;100538.87;2862933;81;21035;-96
2022/07/06 15:38:34;;;;;;;1.50;1.22;;;;;;;24.88;43.77;100546.41;2828257;83;21063;-95
2022/07/06 15:42:35;;;;;;;0.60;0.30;;;;;;;24.83;42.71;100547.55;2845774;83;21012;-93
2022/07/06 15:46:39;;;;;;;3.70;1.02;;;;;;;24.77;42.38;100539.75;2857051;82;21032;-94
2022/07/06 15:50:40;;;;;;;5.75;1.57;;;;;;;24.74;42.44;100545.05;2811252;83;21032;-94
2022/07/06 15:54:43;;;;;;;2.98;0.65;;;;;;;24.78;42.77;100530.55;2831353;82;20992;-95
2022/07/06 15:58:47;;;;;;;1.25;0.70;;;;;;;24.66;42.27;100533.88;2832661;83;21021;-95
2022/07/06 16:02:49;;;;;;;2.90;0.70;;;;;;;24.60;43.49;100529.30;2845849;83;21006;-93
2022/07/06 16:06:51;;;;;;;2.25;0.50;;;;;;;24.72;42.54;100538.14;2848257;82;21007;-90
2022/07/06 16:10:52;;;;;;;1.15;0.40;;;;;;;24.64;42.47;100531.05;2842512;82;21088;-91
2022/07/06 16:15:19;;;;;;;2.92;1.27;;;;;;;24.56;43.25;100521.78;2846749;82;20980;-94
2022/07/06 16:19:20;;;;;;;5.70;0.72;;;;;;;24.76;43.74;100521.22;2822295;81;21074;-93
2022/07/06 16:23:22;;;;;;;2.25;1.22;;;;;;;24.65;42.47;100533.57;2847614;82;20963;-93
2022/07/06 16:27:24;;;;;;;1.17;0.68;;;;;;;24.53;43.24;100524.39;2852617;82;21058;-92
2022/07/06 16:31:26;;;;;;;33.63;6.37;;;;;;;24.43;43.54;100519.39;2827537;83;21023;-94
2022/07/06 16:35:29;;;;;;;9.78;1.42;;;;;;;24.31;43.41;100519.20;2816988;83;21031;-93
2022/07/06 16:39:32;;;;;;;6.67;1.37;;;;;;;24.25;42.80;100521.42;2851090;82;21027;-92
2022/07/06 16:43:33;;;;;;;0.68;0.50;;;;;;;24.17;44.06;100528.41;2891377;79;21003;-93
2022/07/06 16:47:35;;;;;;;1.87;0.60;;;;;;;24.04;43.67;100532.83;2879683;80;21003;-91
2022/07/06 16:51:37;;;;;;;4.37;1.57;;;;;;;23.80;43.36;100521.52;2803164;83;21055;-87
2022/07/06 16:55:38;;;;;;;0.75;0.53;;;;;;;23.76;43.74;100524.84;2877425;80;21055;-96
2022/07/06 16:59:40;;;;;;;1.57;1.07;;;;;;;23.72;44.16;100520.34;2893179;80;21014;-93
2022/07/06 17:03:42;;;;;;;2.83;1.40;;;;;;;23.61;43.83;100520.97;2880308;80;21046;-96
2022/07/06 17:07:44;;;;;;;3.17;1.42;;;;;;;23.57;44.18;100523.25;2885539;82;21054;-96
2022/07/06 17:11:45;;;;;;;3.12;1.55;;;;;;;23.51;44.44;100526.27;2870319;80;21003;-96
2022/07/06 17:15:47;;;;;;;1.95;1.45;;;;;;;23.44;44.62;100525.42;2843473;82;21125;-96
2022/07/06 17:19:48;;;;;;;5.87;1.32;;;;;;;23.28;44.34;100544.79;2864263;80;21031;-95
2022/07/06 17:23:50;;;;;;;4.55;1.35;;;;;;;23.14;44.84;100533.84;2815702;82;20980;-95
2022/07/06 17:32:17;;;;;;;2.95;1.45;;;;;;;22.96;45.45;100534.42;2728845;86;21096;-91
2022/07/06 17:36:19;;;;;;;7.33;1.80;;;;;;;22.91;46.28;100537.73;2738545;84;21083;-94
2022/07/06 17:40:22;;;;;;;3.72;1.20;;;;;;;22.87;45.80;100530.19;2743245;85;20991;-94
2022/07/06 17:44:23;;;;;;;1.52;1.25;;;;;;;22.95;46.45;100541.70;2747111;85;21071;-95
2022/07/06 17:48:25;;;;;;;5.33;1.82;;;;;;;22.88;45.83;100536.78;2864322;79;21102;-94
2022/07/06 17:52:35;;;;;;;1.72;1.47;;;;;;;22.76;46.21;100539.73;2797733;82;21021;-95
2022/07/06 17:56:36;;;;;;;5.30;1.30;;;;;;;22.54;45.98;100543.88;2852055;81;20970;-95
2022/07/06 18:00:41;;;;;;;2.67;1.80;;;;;;;22.35;46.20;100539.45;2813777;84;21045;-96
2022/07/06 18:04:43;;;;;;;3.95;1.15;;;;;;;22.23;46.60;100546.47;2788289;83;21549;-93
2022/07/06 18:08:53;;;;;;;3.52;1.20;;;;;;;22.05;46.30;100551.84;2802457;83;21052;-94
2022/07/06 18:12:55;;;;;;;1.85;1.22;;;;;;;21.96;47.13;100557.06;2833436;83;21483;-92
2022/07/06 18:16:56;;;;;;;5.28;1.30;;;;;;;21.77;47.46;100560.74;2832088;83;21362;-94
2022/07/06 18:20:58;;;;;;;5.10;1.82;;;;;;;21.64;48.04;100565.48;2867782;81;21058;-92
2022/07/06 18:25:00;;;;;;;3.15;0.70;;;;;;;21.47;48.34;100564.89;2853618;81;21335;-94
2022/07/06 18:29:02;;;;;;;1.72;1.55;;;;;;;21.33;48.51;100568.47;2818600;82;21038;-93
2022/07/06 18:33:04;;;;;;;4.72;1.67;;;;;;;21.20;49.10;100565.92;2625809;88;21017;-93
2022/07/06 18:37:05;;;;;;;5.25;2.10;;;;;;;21.09;49.20;100561.02;2794038;85;21030;-93
2022/07/06 18:41:07;;;;;;;3.12;2.22;;;;;;;20.89;49.35;100564.79;2779267;83;21068;-90
2022/07/06 18:45:10;;;;;;;4.55;1.98;;;;;;;20.76;49.58;100565.42;2793506;83;21041;-96
2022/07/06 18:49:12;;;;;;;4.75;1.92;;;;;;;20.59;49.70;100566.95;2778059;83;21101;-91
2022/07/06 18:53:15;;;;;;;4.15;2.15;;;;;;;20.51;49.92;100568.39;2774771;84;21058;-92
2022/07/06 18:57:16;;;;;;;5.50;2.50;;;;;;;20.39;50.16;100565.30;2777294;83;21336;-93
2022/07/06 19:01:19;;;;;;;3.12;1.50;;;;;;;20.29;50.49;100566.92;2796672;83;21030;-92
2022/07/06 19:05:20;;;;;;;6.15;2.87;;;;;;;20.17;50.82;100570.58;2764667;84;21041;-92
2022/07/06 19:09:22;;;;;;;2.52;1.60;;;;;;;20.03;51.67;100576.77;2780232;83;21025;-92
2022/07/06 19:13:23;;;;;;;20.65;4.03;;;;;;;19.87;52.25;100576.36;2789877;84;21070;-92
2022/07/06 19:17:28;;;;;;;20.12;5.30;;;;;;;19.74;52.99;100584.53;2796721;83;21053;-92